PWSweather.com
Personal Weather Stations
Station Observations
RIORANCHO
Corrales Heights, Rio Rancho, NM 87124

Corrales HeightsRio Rancho, NM 87124

Lat: 35.241928, Lon: -106.647095

Elevation: 5297

Station Type: Davis Vantage Pro 2 Plus

http://www.weatherriorancho.com

High Low Average
Temperature 67.3°F19.6°C 34.8°F1.6°C 50.6°F10.3°C
Dew Point 22.7°F-5.2°C 14.6°F-9.7°C 19.4°F-7.0°C
Winds 5.8 mph 9.3 kmh Calm Calm 1.0 mph SW1.6 kmh SW
Wind Gusts 11.5 mph18.5 kmh -- 2.0 mph3.2 kmh
Humidity 51% 17% 31%
Pressure 30.14 in1020.7 mb 29.90 in1012.5 mb -
Precipitation 0.00 in0.0 mm - -
Hour Temp Dew Point Humidity Winds Wind Gusts Pressure Precip Precip Rate Daily Precip Total
12:00 AM 47.4°F8.6°C 20.4°F-6.4°C 34% 1.2 mph NW1.9 kmh NW 3.5 mph5.6 kmh 30.15 in1021.0 mb - 0.00 in0.0 mm 0.00 in0.0 mm
12:10 AM 46.9°F8.3°C 20.0°F-6.7°C 34% Calm Calm 1.2 mph1.9 kmh 30.16 in1021.3 mb - 0.00 in0.0 mm 0.00 in0.0 mm
12:20 AM 46.4°F8.0°C 19.6°F-6.9°C 34% Calm Calm -- 30.16 in1021.3 mb - 0.00 in0.0 mm 0.00 in0.0 mm
12:30 AM 46.1°F7.8°C 19.9°F-6.7°C 35% Calm Calm -- 30.16 in1021.3 mb - 0.00 in0.0 mm 0.00 in0.0 mm
12:40 AM 45.6°F7.6°C 19.5°F-6.9°C 35% Calm Calm 1.2 mph1.9 kmh 30.15 in1021.0 mb - 0.00 in0.0 mm 0.00 in0.0 mm
12:50 AM 45.4°F7.4°C 19.3°F-7.1°C 35% Calm Calm 2.3 mph3.7 kmh 30.15 in1021.0 mb - 0.00 in0.0 mm 0.00 in0.0 mm
01:00 AM 44.7°F7.1°C 19.3°F-7.1°C 36% Calm Calm -- 30.14 in1020.7 mb - 0.00 in0.0 mm 0.00 in0.0 mm
01:10 AM 44.2°F6.8°C 19.5°F-6.9°C 37% Calm Calm -- 30.14 in1020.7 mb - 0.00 in0.0 mm 0.00 in0.0 mm
01:20 AM 43.6°F6.4°C 19.0°F-7.2°C 37% Calm Calm -- 30.14 in1020.7 mb - 0.00 in0.0 mm 0.00 in0.0 mm
01:30 AM 43.4°F6.3°C 19.5°F-6.9°C 38% Calm Calm -- 30.14 in1020.7 mb - 0.00 in0.0 mm 0.00 in0.0 mm
01:40 AM 43.2°F6.2°C 19.3°F-7.1°C 38% Calm Calm -- 30.14 in1020.7 mb - 0.00 in0.0 mm 0.00 in0.0 mm
01:50 AM 43.4°F6.3°C 19.5°F-6.9°C 38% Calm Calm -- 30.13 in1020.3 mb - 0.00 in0.0 mm 0.00 in0.0 mm
02:00 AM 43.2°F6.2°C 19.3°F-7.1°C 38% Calm Calm -- 30.13 in1020.3 mb - 0.00 in0.0 mm 0.00 in0.0 mm
02:10 AM 42.7°F5.9°C 18.8°F-7.3°C 38% Calm Calm -- 30.13 in1020.3 mb - 0.00 in0.0 mm 0.00 in0.0 mm
02:20 AM 42.3°F5.7°C 19.1°F-7.2°C 39% Calm Calm -- 30.13 in1020.3 mb - 0.00 in0.0 mm 0.00 in0.0 mm
02:30 AM 41.9°F5.5°C 18.7°F-7.4°C 39% Calm Calm -- 30.13 in1020.3 mb - 0.00 in0.0 mm 0.00 in0.0 mm
02:40 AM 42.0°F5.6°C 18.8°F-7.3°C 39% Calm Calm -- 30.12 in1020.0 mb - 0.00 in0.0 mm 0.00 in0.0 mm
02:50 AM 41.8°F5.4°C 19.2°F-7.1°C 40% Calm Calm -- 30.12 in1020.0 mb - 0.00 in0.0 mm 0.00 in0.0 mm
03:00 AM 41.5°F5.3°C 18.9°F-7.3°C 40% Calm Calm -- 30.12 in1020.0 mb - 0.00 in0.0 mm 0.00 in0.0 mm
03:10 AM 41.7°F5.4°C 19.7°F-6.8°C 41% Calm Calm 4.6 mph7.4 kmh 30.12 in1020.0 mb - 0.00 in0.0 mm 0.00 in0.0 mm
03:20 AM 42.8°F6.0°C 19.5°F-6.9°C 39% 2.3 mph NW3.7 kmh NW 5.8 mph9.3 kmh 30.11 in1019.6 mb - 0.00 in0.0 mm 0.00 in0.0 mm
03:30 AM 43.8°F6.6°C 19.8°F-6.8°C 38% 1.2 mph NW1.9 kmh NW 2.3 mph3.7 kmh 30.11 in1019.6 mb - 0.00 in0.0 mm 0.00 in0.0 mm
03:40 AM 43.4°F6.3°C 19.5°F-6.9°C 38% Calm Calm -- 30.11 in1019.6 mb - 0.00 in0.0 mm 0.00 in0.0 mm
03:50 AM 42.8°F6.0°C 19.5°F-6.9°C 39% Calm Calm -- 30.11 in1019.6 mb - 0.00 in0.0 mm 0.00 in0.0 mm
04:00 AM 42.0°F5.6°C 19.4°F-7.0°C 40% 2.3 mph NW3.7 kmh NW 8.1 mph13.0 kmh 30.11 in1019.6 mb - 0.00 in0.0 mm 0.00 in0.0 mm
04:10 AM 42.8°F6.0°C 19.5°F-6.9°C 39% 3.5 mph WNW5.6 kmh WNW 10.4 mph16.7 kmh 30.11 in1019.6 mb - 0.00 in0.0 mm 0.00 in0.0 mm
04:20 AM 43.5°F6.4°C 19.5°F-6.9°C 38% 4.6 mph NW7.4 kmh NW 11.5 mph18.5 kmh 30.11 in1019.6 mb - 0.00 in0.0 mm 0.00 in0.0 mm
04:30 AM 44.1°F6.7°C 19.4°F-7.0°C 37% 5.8 mph WNW9.3 kmh WNW 9.2 mph14.8 kmh 30.11 in1019.6 mb - 0.00 in0.0 mm 0.00 in0.0 mm
04:40 AM 44.5°F6.9°C 19.8°F-6.8°C 37% 5.8 mph NW9.3 kmh NW 9.2 mph14.8 kmh 30.11 in1019.6 mb - 0.00 in0.0 mm 0.00 in0.0 mm
04:50 AM 44.3°F6.8°C 19.6°F-6.9°C 37% 1.2 mph WNW1.9 kmh WNW 5.8 mph9.3 kmh 30.11 in1019.6 mb - 0.00 in0.0 mm 0.00 in0.0 mm
05:00 AM 43.4°F6.3°C 19.4°F-7.0°C 38% 1.2 mph WNW1.9 kmh WNW 2.3 mph3.7 kmh 30.11 in1019.6 mb - 0.00 in0.0 mm 0.00 in0.0 mm
05:10 AM 42.8°F6.0°C 18.9°F-7.3°C 38% 1.2 mph WNW1.9 kmh WNW 4.6 mph7.4 kmh 30.11 in1019.6 mb - 0.00 in0.0 mm 0.00 in0.0 mm
05:20 AM 42.4°F5.8°C 19.2°F-7.1°C 39% 1.2 mph WNW1.9 kmh WNW 3.5 mph5.6 kmh 30.11 in1019.6 mb - 0.00 in0.0 mm 0.00 in0.0 mm
05:30 AM 42.3°F5.7°C 19.7°F-6.8°C 40% Calm Calm 2.3 mph3.7 kmh 30.11 in1019.6 mb - 0.00 in0.0 mm 0.00 in0.0 mm
05:40 AM 41.9°F5.5°C 18.7°F-7.4°C 39% Calm Calm 1.2 mph1.9 kmh 30.11 in1019.6 mb - 0.00 in0.0 mm 0.00 in0.0 mm
05:50 AM 41.1°F5.1°C 18.6°F-7.4°C 40% Calm Calm 1.2 mph1.9 kmh 30.11 in1019.6 mb - 0.00 in0.0 mm 0.00 in0.0 mm
06:00 AM 40.7°F4.8°C 19.4°F-7.0°C 42% Calm Calm 2.3 mph3.7 kmh 30.11 in1019.6 mb - 0.00 in0.0 mm 0.00 in0.0 mm
06:10 AM 40.9°F4.9°C 19.5°F-6.9°C 42% 1.2 mph WNW1.9 kmh WNW 4.6 mph7.4 kmh 30.10 in1019.3 mb - 0.00 in0.0 mm 0.00 in0.0 mm
06:20 AM 41.6°F5.3°C 20.1°F-6.6°C 42% 1.2 mph WNW1.9 kmh WNW 3.5 mph5.6 kmh 30.11 in1019.6 mb - 0.00 in0.0 mm 0.00 in0.0 mm
06:30 AM 41.8°F5.4°C 19.8°F-6.8°C 41% Calm Calm -- 30.11 in1019.6 mb - 0.00 in0.0 mm 0.00 in0.0 mm
06:40 AM 41.7°F5.4°C 20.3°F-6.5°C 42% Calm Calm 1.2 mph1.9 kmh 30.11 in1019.6 mb - 0.00 in0.0 mm 0.00 in0.0 mm
06:50 AM 41.5°F5.3°C 19.5°F-6.9°C 41% Calm Calm -- 30.11 in1019.6 mb - 0.00 in0.0 mm 0.00 in0.0 mm
07:00 AM 40.8°F4.9°C 19.4°F-7.0°C 42% Calm Calm -- 30.11 in1019.6 mb - 0.00 in0.0 mm 0.00 in0.0 mm
07:10 AM 39.7°F4.3°C 19.0°F-7.2°C 43% Calm Calm -- 30.11 in1019.6 mb - 0.00 in0.0 mm 0.00 in0.0 mm
07:20 AM 38.8°F3.8°C 18.7°F-7.4°C 44% Calm Calm -- 30.11 in1019.6 mb - 0.00 in0.0 mm 0.00 in0.0 mm
07:30 AM 37.9°F3.3°C 18.9°F-7.3°C 46% Calm Calm -- 30.11 in1019.6 mb - 0.00 in0.0 mm 0.00 in0.0 mm
07:40 AM 37.5°F3.1°C 18.6°F-7.4°C 46% Calm Calm -- 30.12 in1020.0 mb - 0.00 in0.0 mm 0.00 in0.0 mm
07:50 AM 36.6°F2.6°C 18.7°F-7.4°C 48% Calm Calm -- 30.12 in1020.0 mb - 0.00 in0.0 mm 0.00 in0.0 mm
08:00 AM 36.0°F2.2°C 18.7°F-7.4°C 49% Calm Calm -- 30.12 in1020.0 mb - 0.00 in0.0 mm 0.00 in0.0 mm
08:10 AM 35.6°F2.0°C 18.3°F-7.6°C 49% Calm Calm -- 30.12 in1020.0 mb - 0.00 in0.0 mm 0.00 in0.0 mm
08:20 AM 35.2°F1.8°C 17.9°F-7.8°C 49% Calm Calm -- 30.12 in1020.0 mb - 0.00 in0.0 mm 0.00 in0.0 mm
08:30 AM 34.8°F1.6°C 18.1°F-7.7°C 50% Calm Calm -- 30.12 in1020.0 mb - 0.00 in0.0 mm 0.00 in0.0 mm
08:40 AM 35.4°F1.9°C 19.0°F-7.2°C 51% Calm Calm -- 30.12 in1020.0 mb - 0.00 in0.0 mm 0.00 in0.0 mm
08:50 AM 36.0°F2.2°C 18.7°F-7.4°C 49% Calm Calm 1.2 mph1.9 kmh 30.12 in1020.0 mb - 0.00 in0.0 mm 0.00 in0.0 mm
09:00 AM 37.1°F2.8°C 18.7°F-7.4°C 47% Calm Calm -- 30.13 in1020.3 mb - 0.00 in0.0 mm 0.00 in0.0 mm
09:10 AM 37.5°F3.1°C 19.1°F-7.2°C 47% Calm Calm -- 30.13 in1020.3 mb - 0.00 in0.0 mm 0.00 in0.0 mm
09:20 AM 38.8°F3.8°C 19.2°F-7.1°C 45% Calm Calm -- 30.13 in1020.3 mb - 0.00 in0.0 mm 0.00 in0.0 mm
09:30 AM 40.0°F4.4°C 19.8°F-6.8°C 44% Calm Calm -- 30.13 in1020.3 mb - 0.00 in0.0 mm 0.00 in0.0 mm
09:40 AM 41.1°F5.1°C 20.3°F-6.5°C 43% Calm Calm -- 30.13 in1020.3 mb - 0.00 in0.0 mm 0.00 in0.0 mm
09:50 AM 42.7°F5.9°C 20.6°F-6.3°C 41% Calm Calm -- 30.13 in1020.3 mb - 0.00 in0.0 mm 0.00 in0.0 mm
10:00 AM 43.6°F6.4°C 20.9°F-6.2°C 40% Calm Calm -- 30.12 in1020.0 mb - 0.00 in0.0 mm 0.00 in0.0 mm
10:10 AM 45.1°F7.3°C 21.0°F-6.1°C 38% Calm Calm -- 30.12 in1020.0 mb - 0.00 in0.0 mm 0.00 in0.0 mm
10:20 AM 46.0°F7.8°C 20.5°F-6.4°C 36% Calm Calm -- 30.12 in1020.0 mb - 0.00 in0.0 mm 0.00 in0.0 mm
10:30 AM 47.0°F8.3°C 21.4°F-5.9°C 36% Calm Calm -- 30.12 in1020.0 mb - 0.00 in0.0 mm 0.00 in0.0 mm
10:40 AM 47.5°F8.6°C 21.2°F-6.0°C 35% Calm Calm -- 30.12 in1020.0 mb - 0.00 in0.0 mm 0.00 in0.0 mm
10:50 AM 48.7°F9.3°C 21.6°F-5.8°C 34% Calm Calm -- 30.12 in1020.0 mb - 0.00 in0.0 mm 0.00 in0.0 mm
11:00 AM 49.2°F9.6°C 22.0°F-5.6°C 34% Calm Calm -- 30.12 in1020.0 mb - 0.00 in0.0 mm 0.00 in0.0 mm
11:10 AM 49.9°F9.9°C 21.9°F-5.6°C 33% Calm Calm -- 30.12 in1020.0 mb - 0.00 in0.0 mm 0.00 in0.0 mm
11:20 AM 50.8°F10.4°C 22.0°F-5.6°C 32% Calm Calm -- 30.12 in1020.0 mb - 0.00 in0.0 mm 0.00 in0.0 mm
11:30 AM 51.4°F10.8°C 22.5°F-5.3°C 32% Calm Calm 1.2 mph1.9 kmh 30.11 in1019.6 mb - 0.00 in0.0 mm 0.00 in0.0 mm
11:40 AM 53.2°F11.8°C 22.5°F-5.3°C 30% Calm Calm -- 30.11 in1019.6 mb - 0.00 in0.0 mm 0.00 in0.0 mm
11:50 AM 54.3°F12.4°C 22.7°F-5.2°C 29% 1.2 mph SSE1.9 kmh SSE 3.5 mph5.6 kmh 30.11 in1019.6 mb - 0.00 in0.0 mm 0.00 in0.0 mm
12:00 PM 54.2°F12.3°C 21.8°F-5.7°C 28% Calm Calm -- 30.10 in1019.3 mb - 0.00 in0.0 mm 0.00 in0.0 mm
12:10 PM 55.6°F13.1°C 22.1°F-5.5°C 27% Calm Calm 3.5 mph5.6 kmh 30.10 in1019.3 mb - 0.00 in0.0 mm 0.00 in0.0 mm
12:20 PM 56.1°F13.4°C 22.5°F-5.3°C 27% 1.2 mph SSE1.9 kmh SSE 3.5 mph5.6 kmh 30.09 in1019.0 mb - 0.00 in0.0 mm 0.00 in0.0 mm
12:30 PM 56.6°F13.7°C 22.1°F-5.5°C 26% Calm Calm 1.2 mph1.9 kmh 30.09 in1019.0 mb - 0.00 in0.0 mm 0.00 in0.0 mm
12:40 PM 57.9°F14.4°C 22.2°F-5.4°C 25% 1.2 mph SE1.9 kmh SE 3.5 mph5.6 kmh 30.08 in1018.6 mb - 0.00 in0.0 mm 0.00 in0.0 mm
12:50 PM 58.2°F14.6°C 22.5°F-5.3°C 25% Calm Calm 3.5 mph5.6 kmh 30.07 in1018.3 mb - 0.00 in0.0 mm 0.00 in0.0 mm
01:00 PM 58.3°F14.6°C 21.7°F-5.7°C 24% 2.3 mph S3.7 kmh S 1.2 mph1.9 kmh 30.07 in1018.3 mb - 0.00 in0.0 mm 0.00 in0.0 mm
01:10 PM 59.4°F15.2°C 21.5°F-5.8°C 23% 3.5 mph S5.6 kmh S 3.5 mph5.6 kmh 30.06 in1017.9 mb - 0.00 in0.0 mm 0.00 in0.0 mm
01:20 PM 58.9°F14.9°C 21.1°F-6.1°C 23% 2.3 mph SSE3.7 kmh SSE 3.5 mph5.6 kmh 30.05 in1017.6 mb - 0.00 in0.0 mm 0.00 in0.0 mm
01:30 PM 60.2°F15.7°C 22.2°F-5.4°C 23% 1.2 mph S1.9 kmh S 4.6 mph7.4 kmh 30.05 in1017.6 mb - 0.00 in0.0 mm 0.00 in0.0 mm
01:40 PM 59.9°F15.5°C 20.9°F-6.2°C 22% 1.2 mph SE1.9 kmh SE 3.5 mph5.6 kmh 30.04 in1017.3 mb - 0.00 in0.0 mm 0.00 in0.0 mm
01:50 PM 60.8°F16.0°C 21.7°F-5.7°C 22% 2.3 mph S3.7 kmh S 5.8 mph9.3 kmh 30.03 in1016.9 mb - 0.00 in0.0 mm 0.00 in0.0 mm
02:00 PM 61.5°F16.4°C 21.2°F-6.0°C 21% 2.3 mph S3.7 kmh S 6.9 mph11.1 kmh 30.02 in1016.6 mb - 0.00 in0.0 mm 0.00 in0.0 mm
02:10 PM 61.4°F16.3°C 21.1°F-6.1°C 21% 3.5 mph SE5.6 kmh SE 4.6 mph7.4 kmh 30.01 in1016.3 mb - 0.00 in0.0 mm 0.00 in0.0 mm
02:20 PM 62.0°F16.7°C 21.6°F-5.8°C 21% 1.2 mph SSE1.9 kmh SSE 3.5 mph5.6 kmh 30.00 in1015.9 mb - 0.00 in0.0 mm 0.00 in0.0 mm
02:30 PM 62.5°F16.9°C 21.9°F-5.6°C 21% Calm Calm 2.3 mph3.7 kmh 29.99 in1015.6 mb - 0.00 in0.0 mm 0.00 in0.0 mm
02:40 PM 63.1°F17.3°C 20.1°F-6.6°C 19% 3.5 mph S5.6 kmh S 5.8 mph9.3 kmh 29.98 in1015.2 mb - 0.00 in0.0 mm 0.00 in0.0 mm
02:50 PM 63.1°F17.3°C 21.3°F-5.9°C 20% Calm Calm 2.3 mph3.7 kmh 29.98 in1015.2 mb - 0.00 in0.0 mm 0.00 in0.0 mm
03:00 PM 64.0°F17.8°C 20.8°F-6.2°C 19% 3.5 mph SE5.6 kmh SE 8.1 mph13.0 kmh 29.97 in1014.9 mb - 0.00 in0.0 mm 0.00 in0.0 mm
03:10 PM 64.6°F18.1°C 20.1°F-6.6°C 18% 3.5 mph SSE5.6 kmh SSE 3.5 mph5.6 kmh 29.96 in1014.6 mb - 0.00 in0.0 mm 0.00 in0.0 mm
03:20 PM 64.1°F17.8°C 21.0°F-6.1°C 19% 1.2 mph S1.9 kmh S 3.5 mph5.6 kmh 29.96 in1014.6 mb - 0.00 in0.0 mm 0.00 in0.0 mm
03:30 PM 65.1°F18.4°C 20.5°F-6.4°C 18% 3.5 mph SE5.6 kmh SE 9.2 mph14.8 kmh 29.95 in1014.2 mb - 0.00 in0.0 mm 0.00 in0.0 mm
03:40 PM 65.5°F18.6°C 20.8°F-6.2°C 18% Calm Calm -- 29.95 in1014.2 mb - 0.00 in0.0 mm 0.00 in0.0 mm
03:50 PM 65.5°F18.6°C 20.8°F-6.2°C 18% Calm Calm -- 29.94 in1013.9 mb - 0.00 in0.0 mm 0.00 in0.0 mm
04:00 PM 66.2°F19.0°C 20.0°F-6.7°C 17% 2.3 mph SE3.7 kmh SE 3.5 mph5.6 kmh 29.94 in1013.9 mb - 0.00 in0.0 mm 0.00 in0.0 mm
04:10 PM 66.4°F19.1°C 20.2°F-6.6°C 17% Calm Calm -- 29.93 in1013.5 mb - 0.00 in0.0 mm 0.00 in0.0 mm
04:20 PM 67.1°F19.5°C 20.7°F-6.3°C 17% 2.3 mph ESE3.7 kmh ESE 3.5 mph5.6 kmh 29.93 in1013.5 mb - 0.00 in0.0 mm 0.00 in0.0 mm
04:30 PM 67.3°F19.6°C 20.9°F-6.2°C 17% 2.3 mph SE3.7 kmh SE 6.9 mph11.1 kmh 29.92 in1013.2 mb - 0.00 in0.0 mm 0.00 in0.0 mm
04:40 PM 66.3°F19.1°C 20.1°F-6.6°C 17% 1.2 mph SE1.9 kmh SE 4.6 mph7.4 kmh 29.92 in1013.2 mb - 0.00 in0.0 mm 0.00 in0.0 mm
04:50 PM 65.9°F18.8°C 19.8°F-6.8°C 17% 1.2 mph SSE1.9 kmh SSE -- 29.92 in1013.2 mb - 0.00 in0.0 mm 0.00 in0.0 mm
05:00 PM 66.4°F19.1°C 20.2°F-6.6°C 17% Calm Calm -- 29.92 in1013.2 mb - 0.00 in0.0 mm 0.00 in0.0 mm
05:10 PM 66.6°F19.2°C 20.4°F-6.4°C 17% 1.2 mph SE1.9 kmh SE 2.3 mph3.7 kmh 29.91 in1012.9 mb - 0.00 in0.0 mm 0.00 in0.0 mm
05:20 PM 65.8°F18.8°C 19.7°F-6.8°C 17% 1.2 mph SE1.9 kmh SE 2.3 mph3.7 kmh 29.91 in1012.9 mb - 0.00 in0.0 mm 0.00 in0.0 mm
05:30 PM 65.4°F18.6°C 20.7°F-6.3°C 18% 1.2 mph SE1.9 kmh SE 2.3 mph3.7 kmh 29.91 in1012.9 mb - 0.00 in0.0 mm 0.00 in0.0 mm
05:40 PM 65.0°F18.3°C 20.4°F-6.4°C 18% 2.3 mph SE3.7 kmh SE 3.5 mph5.6 kmh 29.91 in1012.9 mb - 0.00 in0.0 mm 0.00 in0.0 mm
05:50 PM 64.6°F18.1°C 20.1°F-6.6°C 18% Calm Calm -- 29.90 in1012.5 mb - 0.00 in0.0 mm 0.00 in0.0 mm
06:00 PM 64.5°F18.1°C 20.0°F-6.7°C 18% 1.2 mph SE1.9 kmh SE 3.5 mph5.6 kmh 29.91 in1012.9 mb - 0.00 in0.0 mm 0.00 in0.0 mm
06:10 PM 64.0°F17.8°C 19.6°F-6.9°C 18% 1.2 mph SE1.9 kmh SE 4.6 mph7.4 kmh 29.90 in1012.5 mb - 0.00 in0.0 mm 0.00 in0.0 mm
06:20 PM 63.6°F17.6°C 19.3°F-7.1°C 18% Calm Calm 1.2 mph1.9 kmh 29.90 in1012.5 mb - 0.00 in0.0 mm 0.00 in0.0 mm
06:30 PM 63.1°F17.3°C 20.1°F-6.6°C 19% Calm Calm 2.3 mph3.7 kmh 29.90 in1012.5 mb - 0.00 in0.0 mm 0.00 in0.0 mm
06:40 PM 62.5°F16.9°C 19.7°F-6.8°C 19% Calm Calm -- 29.91 in1012.9 mb - 0.00 in0.0 mm 0.00 in0.0 mm
06:50 PM 62.0°F16.7°C 19.2°F-7.1°C 19% Calm Calm -- 29.91 in1012.9 mb - 0.00 in0.0 mm 0.00 in0.0 mm
07:00 PM 61.3°F16.3°C 18.6°F-7.4°C 19% Calm Calm -- 29.91 in1012.9 mb - 0.00 in0.0 mm 0.00 in0.0 mm
07:10 PM 60.9°F16.1°C 19.5°F-6.9°C 20% Calm Calm -- 29.91 in1012.9 mb - 0.00 in0.0 mm 0.00 in0.0 mm
07:20 PM 60.9°F16.1°C 19.5°F-6.9°C 20% Calm Calm 2.3 mph3.7 kmh 29.91 in1012.9 mb - 0.00 in0.0 mm 0.00 in0.0 mm
07:30 PM 60.7°F15.9°C 20.5°F-6.4°C 21% Calm Calm 1.2 mph1.9 kmh 29.91 in1012.9 mb - 0.00 in0.0 mm 0.00 in0.0 mm
07:40 PM 60.3°F15.7°C 21.2°F-6.0°C 22% Calm Calm 1.2 mph1.9 kmh 29.91 in1012.9 mb - 0.00 in0.0 mm 0.00 in0.0 mm
07:50 PM 59.7°F15.4°C 19.7°F-6.8°C 21% Calm Calm -- 29.91 in1012.9 mb - 0.00 in0.0 mm 0.00 in0.0 mm
08:00 PM 58.7°F14.8°C 18.8°F-7.3°C 21% Calm Calm -- 29.91 in1012.9 mb - 0.00 in0.0 mm 0.00 in0.0 mm
08:10 PM 57.8°F14.3°C 19.2°F-7.1°C 22% Calm Calm -- 29.91 in1012.9 mb - 0.00 in0.0 mm 0.00 in0.0 mm
08:20 PM 57.3°F14.1°C 18.7°F-7.4°C 22% Calm Calm 1.2 mph1.9 kmh 29.91 in1012.9 mb - 0.00 in0.0 mm 0.00 in0.0 mm
08:30 PM 56.7°F13.7°C 19.2°F-7.1°C 23% Calm Calm 1.2 mph1.9 kmh 29.91 in1012.9 mb - 0.00 in0.0 mm 0.00 in0.0 mm
08:40 PM 55.9°F13.3°C 18.6°F-7.4°C 23% Calm Calm -- 29.91 in1012.9 mb - 0.00 in0.0 mm 0.00 in0.0 mm
08:50 PM 55.2°F12.9°C 18.0°F-7.8°C 23% Calm Calm 2.3 mph3.7 kmh 29.91 in1012.9 mb - 0.00 in0.0 mm 0.00 in0.0 mm
09:00 PM 54.6°F12.6°C 18.5°F-7.5°C 24% 1.2 mph S1.9 kmh S 3.5 mph5.6 kmh 29.92 in1013.2 mb - 0.00 in0.0 mm 0.00 in0.0 mm
09:10 PM 54.3°F12.4°C 18.2°F-7.7°C 24% Calm Calm -- 29.92 in1013.2 mb - 0.00 in0.0 mm 0.00 in0.0 mm
09:20 PM 53.8°F12.1°C 17.8°F-7.9°C 24% Calm Calm -- 29.92 in1013.2 mb - 0.00 in0.0 mm 0.00 in0.0 mm
09:30 PM 53.1°F11.7°C 18.2°F-7.7°C 25% Calm Calm -- 29.92 in1013.2 mb - 0.00 in0.0 mm 0.00 in0.0 mm
09:40 PM 52.5°F11.4°C 17.6°F-8.0°C 25% Calm Calm -- 29.92 in1013.2 mb - 0.00 in0.0 mm 0.00 in0.0 mm
09:50 PM 51.5°F10.8°C 16.8°F-8.4°C 25% Calm Calm -- 29.92 in1013.2 mb - 0.00 in0.0 mm 0.00 in0.0 mm
10:00 PM 50.5°F10.3°C 16.8°F-8.4°C 26% Calm Calm -- 29.92 in1013.2 mb - 0.00 in0.0 mm 0.00 in0.0 mm
10:10 PM 49.7°F9.8°C 16.1°F-8.8°C 26% Calm Calm -- 29.92 in1013.2 mb - 0.00 in0.0 mm 0.00 in0.0 mm
10:20 PM 48.9°F9.4°C 16.3°F-8.7°C 27% Calm Calm -- 29.92 in1013.2 mb - 0.00 in0.0 mm 0.00 in0.0 mm
10:30 PM 48.0°F8.9°C 16.4°F-8.7°C 28% Calm Calm -- 29.92 in1013.2 mb - 0.00 in0.0 mm 0.00 in0.0 mm
10:40 PM 46.9°F8.3°C 15.4°F-9.2°C 28% Calm Calm -- 29.91 in1012.9 mb - 0.00 in0.0 mm 0.00 in0.0 mm
10:50 PM 46.3°F7.9°C 15.7°F-9.1°C 29% Calm Calm -- 29.91 in1012.9 mb - 0.00 in0.0 mm 0.00 in0.0 mm
11:00 PM 46.0°F7.8°C 15.5°F-9.2°C 29% Calm Calm -- 29.91 in1012.9 mb - 0.00 in0.0 mm 0.00 in0.0 mm
11:10 PM 45.6°F7.6°C 15.1°F-9.4°C 29% Calm Calm -- 29.91 in1012.9 mb - 0.00 in0.0 mm 0.00 in0.0 mm
11:20 PM 45.1°F7.3°C 15.5°F-9.2°C 30% Calm Calm -- 29.92 in1013.2 mb - 0.00 in0.0 mm 0.00 in0.0 mm
11:30 PM 44.6°F7.0°C 15.0°F-9.4°C 30% Calm Calm -- 29.92 in1013.2 mb - 0.00 in0.0 mm 0.00 in0.0 mm
11:40 PM 44.0°F6.7°C 15.3°F-9.3°C 31% Calm Calm -- 29.92 in1013.2 mb - 0.00 in0.0 mm 0.00 in0.0 mm
11:50 PM 43.8°F6.6°C 15.1°F-9.4°C 31% Calm Calm -- 29.92 in1013.2 mb - 0.00 in0.0 mm 0.00 in0.0 mm